createdAt,value
2022-08-06T00:01:56.982Z,13.93
2022-08-06T00:06:01.773Z,13.98
2022-08-06T00:10:07.043Z,13.00
2022-08-06T00:14:13.710Z,10.98
2022-08-06T00:18:18.290Z,10.65
2022-08-06T00:22:27.696Z,10.48
2022-08-06T00:26:32.327Z,9.23
2022-08-06T00:30:35.618Z,9.88
2022-08-06T00:34:38.766Z,9.18
2022-08-06T00:38:44.689Z,8.63
2022-08-06T00:42:47.935Z,8.05
2022-08-06T00:46:53.415Z,7.97
2022-08-06T00:50:56.575Z,6.03
2022-08-06T00:55:01.220Z,5.90
2022-08-06T00:59:05.489Z,5.68
2022-08-06T01:03:27.779Z,4.95
2022-08-06T01:07:51.195Z,4.75
2022-08-06T01:11:59.876Z,5.53
2022-08-06T01:16:30.173Z,6.00
2022-08-06T01:22:01.184Z,6.60
2022-08-06T01:25:47.657Z,5.28
2022-08-06T01:29:57.470Z,5.15
2022-08-06T01:34:05.699Z,5.30
2022-08-06T01:38:17.840Z,4.60
2022-08-06T01:42:35.755Z,4.43
2022-08-06T01:46:46.068Z,4.85
2022-08-06T01:50:52.779Z,5.10
2022-08-06T01:54:59.498Z,4.40
2022-08-06T01:59:09.284Z,5.13
2022-08-06T02:03:22.176Z,4.85
2022-08-06T02:08:36.844Z,4.63
2022-08-06T02:12:03.454Z,6.00
2022-08-06T02:16:12.009Z,5.10
2022-08-06T02:20:36.891Z,5.45
2022-08-06T02:24:41.813Z,4.80
2022-08-06T02:28:50.392Z,6.65
2022-08-06T02:32:53.833Z,6.25
2022-08-06T02:37:05.806Z,6.07
2022-08-06T02:41:18.176Z,5.85
2022-08-06T02:45:27.638Z,6.13
2022-08-06T02:49:42.488Z,5.60
2022-08-06T02:54:04.357Z,6.03
2022-08-06T02:58:15.421Z,5.32
2022-08-06T03:02:24.018Z,5.40
2022-08-06T03:06:32.991Z,5.65
2022-08-06T03:10:38.602Z,5.15
2022-08-06T03:15:07.675Z,4.70
2022-08-06T03:19:58.247Z,5.15
2022-08-06T03:23:33.344Z,5.28
2022-08-06T03:27:43.010Z,5.93
2022-08-06T03:31:58.434Z,6.50
2022-08-06T03:36:04.110Z,5.82
2022-08-06T03:40:10.094Z,6.30
2022-08-06T03:44:16.717Z,6.10
2022-08-06T03:48:36.358Z,7.18
2022-08-06T03:52:45.130Z,6.95
2022-08-06T03:56:55.013Z,8.20
2022-08-06T04:01:06.719Z,8.27
2022-08-06T04:05:13.282Z,9.07
2022-08-06T04:09:17.528Z,8.45
2022-08-06T04:14:06.300Z,8.57
2022-08-06T04:18:04.044Z,8.63
2022-08-06T04:22:58.260Z,9.35
2022-08-06T04:26:32.643Z,9.57
2022-08-06T04:30:38.873Z,9.45
2022-08-06T04:36:05.787Z,9.48
2022-08-06T04:39:20.678Z,11.27
2022-08-06T04:43:38.809Z,11.10
2022-08-06T04:47:52.443Z,12.07
2022-08-06T04:52:36.331Z,13.52
2022-08-06T04:56:20.219Z,11.82
2022-08-06T05:00:33.554Z,13.10
2022-08-06T05:04:38.257Z,12.90
2022-08-06T05:08:52.069Z,13.38
2022-08-06T05:12:58.348Z,14.07
2022-08-06T05:17:04.142Z,14.00
2022-08-06T05:21:14.875Z,14.73
2022-08-06T05:25:27.363Z,15.13
2022-08-06T05:29:32.066Z,13.50
2022-08-06T05:33:41.872Z,16.20
2022-08-06T05:38:01.356Z,15.27
2022-08-06T05:42:09.394Z,16.15
2022-08-06T05:46:17.373Z,16.60
2022-08-06T05:50:25.467Z,17.67
2022-08-06T05:54:36.195Z,16.73
2022-08-06T05:58:51.378Z,16.20
2022-08-06T06:03:01.849Z,14.90
2022-08-06T06:07:08.721Z,15.32
2022-08-06T06:11:13.559Z,14.88
2022-08-06T06:16:00.871Z,15.88
2022-08-06T06:19:52.106Z,16.20
2022-08-06T06:24:02.772Z,16.48
2022-08-06T06:28:28.464Z,18.05
2022-08-06T06:32:45.019Z,15.80
2022-08-06T06:36:58.278Z,13.93
2022-08-06T06:41:20.039Z,17.40
2022-08-06T06:46:07.227Z,14.10
2022-08-06T06:50:04.011Z,13.63
2022-08-06T06:54:22.644Z,12.90
2022-08-06T06:58:33.490Z,12.45
2022-08-06T07:02:41.992Z,10.77
2022-08-06T07:06:57.757Z,8.48
2022-08-06T07:11:03.898Z,8.05
2022-08-06T07:15:15.000Z,5.70
2022-08-06T07:19:22.885Z,4.60
2022-08-06T07:24:07.450Z,4.70
2022-08-06T07:27:55.597Z,3.28
2022-08-06T07:32:00.775Z,3.15
2022-08-06T07:36:04.504Z,3.00
2022-08-06T07:40:17.778Z,3.53
2022-08-06T07:44:26.810Z,2.85
2022-08-06T07:48:35.182Z,2.80
2022-08-06T07:52:42.643Z,2.33
2022-08-06T07:56:59.751Z,2.53
2022-08-06T08:01:04.245Z,2.70
2022-08-06T08:05:39.469Z,2.80
2022-08-06T08:10:01.482Z,2.33
2022-08-06T08:14:09.352Z,2.45
2022-08-06T08:18:16.342Z,2.40
2022-08-06T08:22:24.243Z,2.15
2022-08-06T08:26:43.452Z,2.63
2022-08-06T08:30:52.924Z,2.45
2022-08-06T08:34:57.308Z,2.88
2022-08-06T08:39:06.119Z,2.67
2022-08-06T08:43:15.283Z,2.90
2022-08-06T08:47:38.820Z,2.53
2022-08-06T08:51:49.700Z,2.53
2022-08-06T08:57:09.507Z,3.13
2022-08-06T09:00:26.367Z,3.58
2022-08-06T09:04:34.085Z,3.90
2022-08-06T09:09:02.673Z,3.42
2022-08-06T09:13:01.742Z,3.70
2022-08-06T09:17:12.494Z,3.95
2022-08-06T09:21:31.057Z,3.63
2022-08-06T09:25:49.765Z,5.53
2022-08-06T09:30:04.429Z,3.50
2022-08-06T09:34:31.024Z,4.15
2022-08-06T09:38:49.468Z,3.70
2022-08-06T09:42:54.138Z,4.35
2022-08-06T09:46:58.938Z,3.88
2022-08-06T09:51:02.932Z,4.00
2022-08-06T09:55:16.970Z,4.03
2022-08-06T09:59:20.676Z,3.70
2022-08-06T10:04:01.867Z,4.25
2022-08-06T10:07:52.187Z,4.30
2022-08-06T10:11:58.864Z,3.58
2022-08-06T10:16:16.406Z,3.38
2022-08-06T10:20:20.304Z,3.65
2022-08-06T10:24:26.104Z,3.67
2022-08-06T10:28:49.037Z,3.70
2022-08-06T10:32:58.898Z,4.63
2022-08-06T10:37:07.806Z,3.85
2022-08-06T10:41:59.621Z,3.90
2022-08-06T10:45:49.929Z,4.18
2022-08-06T10:50:32.102Z,3.40
2022-08-06T10:54:22.487Z,4.07
2022-08-06T10:58:28.315Z,3.95
2022-08-06T11:02:40.231Z,3.45
2022-08-06T11:08:09.136Z,3.33
2022-08-06T11:12:17.348Z,3.60
2022-08-06T11:16:31.393Z,3.25
2022-08-06T11:20:45.079Z,2.60
2022-08-06T11:24:57.461Z,2.42
2022-08-06T11:29:02.586Z,2.67
2022-08-06T11:33:06.168Z,2.20
2022-08-06T11:38:00.572Z,2.40
2022-08-06T11:41:56.549Z,2.13
2022-08-06T11:46:35.450Z,2.15
2022-08-06T11:50:41.267Z,2.53
2022-08-06T11:55:03.490Z,2.83
2022-08-06T11:59:17.079Z,2.03
2022-08-06T12:03:44.511Z,2.33
2022-08-06T12:08:22.010Z,1.90
2022-08-06T12:12:45.032Z,1.70
2022-08-06T12:16:53.137Z,1.90
2022-08-06T12:20:58.140Z,2.20
2022-08-06T12:25:10.885Z,1.65
2022-08-06T12:29:17.275Z,2.20
2022-08-06T12:33:27.054Z,2.08
2022-08-06T12:37:47.542Z,1.80
2022-08-06T12:41:54.285Z,1.75
2022-08-06T12:46:06.891Z,1.92
2022-08-06T12:50:29.870Z,1.98
2022-08-06T12:54:33.608Z,1.60
2022-08-06T12:58:42.616Z,1.75
2022-08-06T13:02:50.459Z,1.50
2022-08-06T13:06:54.080Z,1.50
2022-08-06T13:11:00.313Z,1.70
2022-08-06T13:15:18.385Z,1.63
2022-08-06T13:19:28.091Z,1.80
2022-08-06T13:23:36.947Z,1.52
2022-08-06T13:27:56.175Z,1.67
2022-08-06T13:32:11.056Z,1.42
2022-08-06T13:36:33.327Z,1.80
2022-08-06T13:40:47.365Z,1.55
2022-08-06T13:44:55.288Z,1.60
2022-08-06T13:49:01.938Z,1.52
2022-08-06T13:53:07.600Z,1.60
2022-08-06T13:57:17.290Z,1.50
2022-08-06T14:01:20.435Z,1.40
2022-08-06T14:05:24.234Z,1.55
2022-08-06T14:09:41.142Z,1.63
2022-08-06T14:13:55.035Z,1.40
2022-08-06T14:17:58.353Z,1.40
2022-08-06T14:22:01.607Z,1.40
2022-08-06T14:26:12.596Z,1.60
2022-08-06T14:30:25.446Z,1.42
2022-08-06T14:34:35.824Z,1.40
2022-08-06T14:38:42.514Z,1.45
2022-08-06T14:43:04.544Z,1.30
2022-08-06T14:47:10.390Z,1.60
2022-08-06T14:51:23.544Z,1.70
2022-08-06T14:55:26.775Z,1.25
2022-08-06T14:59:48.261Z,1.38
2022-08-06T15:03:52.626Z,1.83
2022-08-06T15:07:57.358Z,1.50
2022-08-06T15:12:01.228Z,1.40
2022-08-06T15:16:11.027Z,1.38
2022-08-06T15:20:33.436Z,1.20
2022-08-06T15:24:38.640Z,1.52
2022-08-06T15:28:46.409Z,1.50
2022-08-06T15:32:57.171Z,1.30
2022-08-06T15:37:03.267Z,1.20
2022-08-06T15:41:07.805Z,1.40
2022-08-06T15:45:16.975Z,1.27
2022-08-06T15:50:03.982Z,1.30
2022-08-06T15:54:01.914Z,1.40
2022-08-06T15:58:10.361Z,1.20
2022-08-06T16:02:13.769Z,1.40
2022-08-06T16:06:36.327Z,1.50
2022-08-06T16:10:43.954Z,1.25
2022-08-06T16:14:57.443Z,1.30
2022-08-06T16:19:02.428Z,1.63
2022-08-06T16:23:38.205Z,1.33
2022-08-06T16:27:37.986Z,1.20
2022-08-06T16:31:48.503Z,1.30
2022-08-06T16:35:56.853Z,1.52
2022-08-06T16:40:04.879Z,1.17
2022-08-06T16:44:08.815Z,1.23
2022-08-06T16:48:25.094Z,1.30
2022-08-06T16:52:42.530Z,1.20
2022-08-06T16:56:49.740Z,1.40
2022-08-06T17:00:59.642Z,1.20
2022-08-06T17:05:21.540Z,1.30
2022-08-06T17:09:25.408Z,1.25
2022-08-06T17:17:53.770Z,1.60
2022-08-06T17:22:00.673Z,1.30
2022-08-06T17:26:04.834Z,1.40
2022-08-06T17:30:16.049Z,1.42
2022-08-06T17:34:19.601Z,1.30
2022-08-06T17:38:22.878Z,1.33
2022-08-06T17:42:26.876Z,1.45
2022-08-06T17:46:36.616Z,1.75
2022-08-06T17:50:42.642Z,1.65
2022-08-06T17:54:54.413Z,1.52
2022-08-06T17:59:17.687Z,1.58
2022-08-06T18:03:50.304Z,1.30
2022-08-06T18:08:10.804Z,1.58
2022-08-06T18:12:13.275Z,1.40
2022-08-06T18:16:16.422Z,1.50
2022-08-06T18:20:28.585Z,1.50
2022-08-06T18:24:43.375Z,1.60
2022-08-06T18:28:53.638Z,1.40
2022-08-06T18:32:56.977Z,1.80
2022-08-06T18:37:20.026Z,1.42
2022-08-06T18:41:24.801Z,1.60
2022-08-06T18:45:31.285Z,1.52
2022-08-06T18:49:51.354Z,1.73
2022-08-06T18:54:02.111Z,1.80
2022-08-06T18:58:13.831Z,1.70
2022-08-06T19:02:23.164Z,1.73
2022-08-06T19:06:30.184Z,1.52
2022-08-06T19:10:34.949Z,1.50
2022-08-06T19:14:44.359Z,1.55
2022-08-06T19:18:57.563Z,1.60
2022-08-06T19:23:03.005Z,1.80
2022-08-06T19:27:12.554Z,2.00
2022-08-06T19:31:23.290Z,1.73
2022-08-06T19:36:06.786Z,1.70
2022-08-06T19:40:12.404Z,1.67
2022-08-06T19:44:36.016Z,1.88
2022-08-06T19:48:45.557Z,1.70
2022-08-06T19:52:50.197Z,1.85
2022-08-06T19:56:53.643Z,1.88
2022-08-06T20:01:31.223Z,1.95
2022-08-06T20:06:19.817Z,1.98
2022-08-06T20:09:59.491Z,2.05
2022-08-06T20:14:04.036Z,1.80
2022-08-06T20:18:08.760Z,2.25
2022-08-06T20:22:13.895Z,2.33
2022-08-06T20:26:35.563Z,2.13
2022-08-06T20:30:49.691Z,2.50
2022-08-06T20:35:00.092Z,2.00
2022-08-06T20:39:03.602Z,2.25
2022-08-06T20:43:11.730Z,2.63
2022-08-06T20:47:48.559Z,2.60
2022-08-06T20:51:42.682Z,2.60
2022-08-06T20:55:46.853Z,2.40
2022-08-06T20:59:50.872Z,2.25
2022-08-06T21:05:12.873Z,2.85
2022-08-06T21:08:18.918Z,2.38
2022-08-06T21:12:22.200Z,2.38
2022-08-06T21:16:32.601Z,2.35
2022-08-06T21:20:37.782Z,2.17
2022-08-06T21:24:42.388Z,2.30
2022-08-06T21:28:54.439Z,2.58
2022-08-06T21:32:58.511Z,2.72
2022-08-06T21:37:02.973Z,2.50
2022-08-06T21:41:49.736Z,2.88
2022-08-06T21:46:04.696Z,2.20
2022-08-06T21:50:25.012Z,2.30
2022-08-06T21:54:29.656Z,2.72
2022-08-06T21:58:35.382Z,2.63
2022-08-06T22:02:38.538Z,2.60
2022-08-06T22:06:43.997Z,2.42
2022-08-06T22:10:52.828Z,2.80
2022-08-06T22:14:59.027Z,2.53
2022-08-06T22:19:06.365Z,2.60
2022-08-06T22:23:09.707Z,2.20
2022-08-06T22:27:15.306Z,2.50
2022-08-06T22:31:19.880Z,2.60
2022-08-06T22:35:23.797Z,2.63
2022-08-06T22:39:34.688Z,2.70
2022-08-06T22:43:55.958Z,2.90
2022-08-06T22:48:03.406Z,2.70
2022-08-06T22:52:07.713Z,3.00
2022-08-06T22:56:11.647Z,2.97
2022-08-06T23:00:19.142Z,3.03
2022-08-06T23:04:26.764Z,3.17
2022-08-06T23:08:32.414Z,2.90
2022-08-06T23:12:37.923Z,2.80
2022-08-06T23:16:41.098Z,2.72
2022-08-06T23:20:45.698Z,3.03
2022-08-06T23:24:55.499Z,3.03
2022-08-06T23:29:13.687Z,3.15
2022-08-06T23:33:18.252Z,2.63
2022-08-06T23:37:22.928Z,2.60
2022-08-06T23:41:58.142Z,2.60
2022-08-06T23:46:00.915Z,2.78
2022-08-06T23:50:05.095Z,2.75
2022-08-06T23:54:16.114Z,2.75
2022-08-06T23:58:32.052Z,2.35
